Feasterville, Pennsylvania
Current Conditions -  °F | °C
As of 6:54 PM on Monday 20 Oct 2014 (Local Time) from KPNE Reporting Station
Clear Clear  
Wind Chill: 57°   Ceiling: Unl
Heat Index: 57°   Visibility: 10mi
Dew Point: 39°   Wind: 3mph
Humidity: 51%   Direction: 140°SE
Pressure: 29.99"   Gusts: NA
Location:  40.1496°N, 74.9856°W
Report Text: KPNE 202254Z 14003KT 10SM CLR 14/04 A2999 RMK AO2 SLP154 T01390039 $
Loading
Personal Weather Stations






























Interactive Weather Map
Tropical Storm Tracking
New forecast layout! Learn more

10-Day Weather Forecast

Advertisements
Track Severe Weather on mobile